< < Back
Terminal Aerodrome Forecast


Current Version              Previous Versions:   1  2  3  4  5  6  7  8  9  

Terminal Aerodrome Forecast

731
FTUS44 KBMX 250500
TAFTCL
TAF
KTCL 250523Z 2506/2606 00000KT P6SM SKC
     FM251500 34005KT P6SM SKC=

Latest METAR

022
SAUS70 KWBC 250600 RRN
MTRTCL
METAR KTCL 250553Z AUTO 00000KT 10SM CLR 10/08 A3010 RMK AO2 SLP190
T01000078 10178 20089 402500089 50000


USA.gov is the U.S. government's official web portal to all federal, state and local government web resources and services.